Time;durP1;ratioP1;P1;durP2;ratioP2;P2;SDS_P1;SDS_P2;PMS_P1;PMS_P2;Temp;Humidity;BMP_temperature;BMP_pressure;BME280_temperature;BME280_humidity;BME280_pressure;Samples;Min_cycle;Max_cycle;Signal;HPM_P1;HPM_P2
2023/07/05 00:01:13;;;;;;;25.87;15.53;;;19.10;97.20;;;;;;5054169;28;20257;-85
2023/07/05 00:03:41;;;;;;;27.00;14.80;;;19.20;97.20;;;;;;5054426;28;20195;-85
2023/07/05 00:06:08;;;;;;;26.10;14.77;;;19.10;97.10;;;;;;5055805;28;20784;-86
2023/07/05 00:08:36;;;;;;;25.53;14.70;;;19.20;97.10;;;;;;5037384;28;20305;-85
2023/07/05 00:11:05;;;;;;;26.47;14.40;;;19.20;97.20;;;;;;5053915;28;20223;-85
2023/07/05 00:13:33;;;;;;;27.37;14.27;;;19.10;97.40;;;;;;5053777;28;20244;-85
2023/07/05 00:16:00;;;;;;;25.70;14.27;;;19.10;97.50;;;;;;5053702;28;20313;-86
2023/07/05 00:18:28;;;;;;;28.50;15.47;;;19.10;97.60;;;;;;5053981;28;20230;-85
2023/07/05 00:21:03;;;;;;;26.43;15.10;;;19.00;97.90;;;;;;5053867;28;20225;-85
2023/07/05 00:23:32;;;;;;;26.17;14.73;;;19.00;98.50;;;;;;5037247;28;20194;-85
2023/07/05 00:25:59;;;;;;;25.63;14.37;;;18.90;98.60;;;;;;5053588;28;20215;-86
2023/07/05 00:28:26;;;;;;;27.80;15.40;;;18.80;98.80;;;;;;5054799;28;20257;-86
2023/07/05 00:30:53;;;;;;;26.77;14.87;;;18.80;99.00;;;;;;5054845;28;20637;-85
2023/07/05 00:33:20;;;;;;;28.37;14.80;;;18.80;99.40;;;;;;5052922;28;20306;-86
2023/07/05 00:35:49;;;;;;;25.67;14.80;;;18.80;99.90;;;;;;5054792;28;20667;-85
2023/07/05 00:38:17;;;;;;;26.43;14.93;;;18.70;99.90;;;;;;5054779;28;20240;-86
2023/07/05 00:40:44;;;;;;;27.30;14.33;;;18.60;99.90;;;;;;5053289;28;20214;-85
2023/07/05 00:43:12;;;;;;;25.73;14.40;;;18.60;99.90;;;;;;5036799;28;20195;-85
2023/07/05 00:45:53;;;;;;;28.20;15.13;;;18.50;99.90;;;;;;5053384;28;20199;-79
2023/07/05 00:48:29;;;;;;;28.60;14.80;;;18.40;99.90;;;;;;5053070;28;20261;-80
2023/07/05 00:51:00;;;;;;;28.03;15.50;;;18.30;99.90;;;;;;5053131;28;20263;-79
2023/07/05 00:53:28;;;;;;;31.63;15.93;;;18.30;99.90;;;;;;5053284;28;20175;-80
2023/07/05 00:56:03;;;;;;;29.23;15.83;;;18.20;99.90;;;;;;5053020;28;20219;-80
2023/07/05 00:58:30;;;;;;;31.17;16.07;;;18.10;99.90;;;;;;5053221;28;20218;-81
2023/07/05 01:00:57;;;;;;;30.77;16.60;;;18.00;99.90;;;;;;5036505;28;20626;-80
2023/07/05 01:03:26;;;;;;;27.13;15.90;;;17.90;99.90;;;;;;5053068;28;20261;-80
2023/07/05 01:05:57;;;;;;;28.37;15.83;;;17.90;99.90;;;;;;5020740;28;20732;-80
2023/07/05 01:08:24;;;;;;;26.67;14.83;;;17.90;99.90;;;;;;5036766;28;20219;-81
2023/07/05 01:11:17;;;;;;;26.00;15.40;;;17.90;99.90;;;;;;5054484;28;20218;-81
2023/07/05 01:13:57;;;;;;;25.77;14.77;;;17.80;99.90;;;;;;5053315;28;20206;-81
2023/07/05 01:16:40;;;;;;;29.47;15.70;;;17.80;99.90;;;;;;5053012;28;20662;-81
2023/07/05 01:19:22;;;;;;;28.43;15.90;;;17.70;99.90;;;;;;5053009;28;20191;-81
2023/07/05 01:21:56;;;;;;;27.47;15.10;;;17.70;99.90;;;;;;5052857;28;20203;-81
2023/07/05 01:24:50;;;;;;;28.03;14.87;;;17.60;99.90;;;;;;5053797;28;20182;-80
2023/07/05 01:27:36;;;;;;;30.50;16.00;;;17.50;99.90;;;;;;5036098;28;20752;-82
2023/07/05 01:30:09;;;;;;;30.80;16.20;;;17.50;99.90;;;;;;5052489;28;20210;-82
2023/07/05 01:32:56;;;;;;;31.13;16.20;;;17.40;99.90;;;;;;5053646;28;20175;-81
2023/07/05 01:35:31;;;;;;;31.07;15.30;;;17.50;99.90;;;;;;5053535;28;20226;-81
2023/07/05 01:37:58;;;;;;;28.57;15.80;;;17.30;99.90;;;;;;5035879;28;20243;-80
2023/07/05 01:40:25;;;;;;;27.63;14.97;;;17.30;99.90;;;;;;5052077;28;20305;-80
2023/07/05 01:43:01;;;;;;;31.57;16.30;;;17.20;99.90;;;;;;5052120;28;20217;-80
2023/07/05 01:45:48;;;;;;;29.40;16.27;;;17.20;99.90;;;;;;5052012;28;20254;-81
2023/07/05 01:48:26;;;;;;;28.90;16.17;;;17.20;99.90;;;;;;5051870;28;20716;-81
2023/07/05 01:51:03;;;;;;;29.27;15.60;;;17.10;99.90;;;;;;5051962;28;20664;-80
2023/07/05 01:53:44;;;;;;;29.73;16.10;;;17.10;99.90;;;;;;5051974;28;20232;-81
2023/07/05 01:56:21;;;;;;;28.40;15.50;;;17.10;99.90;;;;;;5051738;28;20264;-81
2023/07/05 01:58:51;;;;;;;29.47;15.70;;;17.00;99.90;;;;;;5051768;28;20199;-80
2023/07/05 02:01:22;;;;;;;29.30;15.73;;;17.00;99.90;;;;;;5051687;28;20226;-81
2023/07/05 02:03:50;;;;;;;28.60;15.50;;;17.00;99.90;;;;;;5035214;28;20599;-80
2023/07/05 02:06:18;;;;;;;27.60;15.77;;;16.90;99.90;;;;;;5035135;28;20218;-81
2023/07/05 02:08:49;;;;;;;31.37;16.07;;;16.90;99.90;;;;;;5035386;28;20250;-80
2023/07/05 02:11:17;;;;;;;29.33;15.93;;;16.90;99.90;;;;;;5052857;28;20217;-80
2023/07/05 02:13:44;;;;;;;33.00;15.73;;;16.90;99.90;;;;;;5052821;28;20190;-80
2023/07/05 02:16:11;;;;;;;29.40;16.13;;;16.80;99.90;;;;;;5051572;28;20249;-81
2023/07/05 02:18:38;;;;;;;31.03;15.90;;;16.80;99.90;;;;;;5051434;28;20191;-80
2023/07/05 02:21:10;;;;;;;27.63;15.97;;;16.80;99.90;;;;;;5034860;28;20630;-80
2023/07/05 02:23:37;;;;;;;29.77;16.43;;;16.70;99.90;;;;;;5052920;28;20285;-81
2023/07/05 02:26:06;;;;;;;33.80;17.50;;;16.70;99.90;;;;;;5034731;28;20215;-80
2023/07/05 02:28:33;;;;;;;31.03;16.87;;;16.60;99.90;;;;;;5034939;28;20242;-80
2023/07/05 02:31:06;;;;;;;33.77;17.53;;;16.60;99.90;;;;;;5034711;28;20225;-80
2023/07/05 02:33:37;;;;;;;33.43;17.43;;;16.50;99.90;;;;;;5051148;28;20225;-80
2023/07/05 02:36:12;;;;;;;29.60;17.00;;;16.50;99.90;;;;;;5051063;28;20650;-80
2023/07/05 02:38:40;;;;;;;31.00;17.07;;;16.50;99.90;;;;;;5051148;28;20248;-81
2023/07/05 02:41:08;;;;;;;36.83;17.70;;;16.40;99.90;;;;;;5051183;28;20268;-81
2023/07/05 02:43:35;;;;;;;30.33;16.97;;;16.40;99.90;;;;;;5051443;28;20610;-81
2023/07/05 02:46:05;;;;;;;29.10;16.57;;;16.40;99.90;;;;;;5051439;28;20309;-82
2023/07/05 02:48:32;;;;;;;34.17;17.47;;;16.40;99.90;;;;;;5034420;28;20218;-80
2023/07/05 02:50:59;;;;;;;33.00;17.17;;;16.30;99.90;;;;;;5034748;28;20238;-82
2023/07/05 02:53:27;;;;;;;34.23;17.87;;;16.30;99.90;;;;;;5052440;28;20225;-81
2023/07/05 02:55:55;;;;;;;29.77;17.27;;;16.30;99.90;;;;;;5050833;28;20574;-81
2023/07/05 02:58:22;;;;;;;30.83;17.30;;;16.30;99.90;;;;;;5051197;28;20268;-81
2023/07/05 03:00:49;;;;;;;31.07;17.70;;;16.30;99.90;;;;;;5051281;28;20279;-81
2023/07/05 03:03:16;;;;;;;33.07;17.37;;;16.40;99.90;;;;;;5034783;28;20237;-81
2023/07/05 03:05:43;;;;;;;30.50;16.43;;;16.40;99.90;;;;;;5034604;28;20246;-81
2023/07/05 03:08:10;;;;;;;32.27;17.40;;;16.40;99.90;;;;;;5050959;28;20207;-81
2023/07/05 03:10:40;;;;;;;32.27;18.07;;;16.50;99.90;;;;;;5051035;28;20663;-81
2023/07/05 03:13:07;;;;;;;32.67;17.30;;;16.50;99.90;;;;;;5052169;28;20271;-80
2023/07/05 03:15:34;;;;;;;30.70;17.53;;;16.50;99.90;;;;;;5050671;28;20266;-81
2023/07/05 03:18:01;;;;;;;32.97;17.63;;;16.50;99.90;;;;;;5050948;28;20199;-81
2023/07/05 03:20:28;;;;;;;33.07;17.50;;;16.50;99.90;;;;;;5034311;28;20244;-81
2023/07/05 03:22:55;;;;;;;32.83;17.80;;;16.60;99.90;;;;;;5034371;28;20726;-81
2023/07/05 03:25:22;;;;;;;34.60;17.83;;;16.60;99.90;;;;;;5052007;28;20301;-81
2023/07/05 03:27:49;;;;;;;30.60;17.17;;;16.60;99.90;;;;;;5050799;28;20241;-81
2023/07/05 03:30:16;;;;;;;32.63;16.90;;;16.60;99.90;;;;;;5052065;28;20215;-82
2023/07/05 03:32:43;;;;;;;32.73;17.67;;;16.70;99.90;;;;;;5034477;28;20599;-81
2023/07/05 03:35:11;;;;;;;32.00;17.30;;;16.70;99.90;;;;;;5034108;28;20268;-81
2023/07/05 03:37:38;;;;;;;30.90;18.03;;;16.70;99.90;;;;;;5034086;28;20289;-81
2023/07/05 03:40:05;;;;;;;34.33;17.40;;;16.80;99.90;;;;;;5050527;28;20683;-81
2023/07/05 03:42:32;;;;;;;32.83;17.47;;;16.80;99.90;;;;;;5050696;28;20194;-81
2023/07/05 03:44:59;;;;;;;35.20;18.10;;;16.80;99.90;;;;;;5050431;28;20297;-81
2023/07/05 03:47:28;;;;;;;29.40;16.80;;;16.80;99.90;;;;;;5051872;28;20691;-81
2023/07/05 03:49:55;;;;;;;33.03;17.73;;;16.90;99.90;;;;;;5034090;28;20229;-81
2023/07/05 03:52:23;;;;;;;32.00;17.70;;;16.90;99.90;;;;;;5050762;28;20283;-81
2023/07/05 03:54:49;;;;;;;31.70;17.97;;;17.00;99.90;;;;;;5034254;28;20234;-81
2023/07/05 03:57:17;;;;;;;31.27;16.17;;;17.00;99.90;;;;;;5050912;28;20221;-80
2023/07/05 03:59:46;;;;;;;32.13;16.97;;;17.00;99.90;;;;;;5051201;28;20290;-81
2023/07/05 04:02:13;;;;;;;31.07;16.60;;;17.10;99.90;;;;;;5051902;28;20211;-80
2023/07/05 04:04:42;;;;;;;29.57;16.27;;;17.20;99.90;;;;;;5034190;28;20742;-80
2023/07/05 04:07:09;;;;;;;33.23;17.17;;;17.30;99.90;;;;;;5034093;28;20223;-81
2023/07/05 04:09:36;;;;;;;30.57;16.33;;;17.30;99.90;;;;;;5053894;28;20218;-81
2023/07/05 04:12:03;;;;;;;30.90;16.30;;;17.30;99.90;;;;;;5037440;28;20687;-81
2023/07/05 04:14:31;;;;;;;31.63;16.00;;;17.40;99.90;;;;;;5055376;28;20268;-81
2023/07/05 04:16:58;;;;;;;32.00;16.67;;;17.50;99.90;;;;;;5037211;28;20215;-81
2023/07/05 04:19:25;;;;;;;30.90;16.47;;;17.50;99.90;;;;;;5037499;28;20602;-81
2023/07/05 04:21:52;;;;;;;30.27;16.10;;;17.60;99.90;;;;;;5053562;28;20219;-81
2023/07/05 04:24:19;;;;;;;29.73;16.43;;;17.70;99.90;;;;;;5055230;28;20647;-81
2023/07/05 04:26:46;;;;;;;32.30;16.83;;;17.80;99.90;;;;;;5037069;28;20226;-81
2023/07/05 04:29:13;;;;;;;31.37;16.40;;;17.80;99.90;;;;;;5053406;28;20222;-81
2023/07/05 04:31:40;;;;;;;30.47;16.53;;;17.90;99.90;;;;;;5054804;28;20623;-80
2023/07/05 04:34:07;;;;;;;32.00;15.73;;;18.00;99.90;;;;;;5037126;28;20203;-81
2023/07/05 04:36:34;;;;;;;31.53;16.13;;;18.00;99.90;;;;;;5053347;28;20219;-81
2023/07/05 04:39:01;;;;;;;29.40;14.90;;;18.10;99.90;;;;;;5053290;28;20191;-81
2023/07/05 04:41:28;;;;;;;29.33;15.00;;;18.20;99.90;;;;;;5054581;28;20264;-81
2023/07/05 04:43:55;;;;;;;28.27;15.73;;;18.30;99.90;;;;;;5053628;28;20280;-80
2023/07/05 04:46:23;;;;;;;29.93;15.83;;;18.40;99.90;;;;;;5036493;28;20211;-80
2023/07/05 04:48:50;;;;;;;29.17;14.83;;;18.40;99.90;;;;;;5053139;28;20215;-79
2023/07/05 04:51:17;;;;;;;26.33;14.30;;;18.50;99.90;;;;;;5053381;28;20211;-81
2023/07/05 04:53:44;;;;;;;28.27;14.67;;;18.60;99.90;;;;;;5053216;28;20671;-80
2023/07/05 04:56:13;;;;;;;25.53;14.30;;;18.60;99.90;;;;;;5036537;28;20632;-80
2023/07/05 04:58:41;;;;;;;22.80;13.40;;;18.70;99.90;;;;;;5052935;28;20199;-81
2023/07/05 05:01:09;;;;;;;26.57;14.23;;;18.80;99.90;;;;;;5052891;28;20226;-80
2023/07/05 05:03:36;;;;;;;26.93;14.07;;;18.80;99.90;;;;;;5054483;28;20581;-81
2023/07/05 05:06:03;;;;;;;23.57;13.17;;;18.90;99.90;;;;;;5052756;28;20215;-81
2023/07/05 05:08:30;;;;;;;26.23;13.50;;;19.00;99.90;;;;;;5053010;28;20211;-83
2023/07/05 05:10:59;;;;;;;27.73;13.93;;;19.10;99.90;;;;;;5052864;28;20207;-81
2023/07/05 05:13:28;;;;;;;25.17;13.70;;;19.10;99.90;;;;;;5053165;28;20198;-81
2023/07/05 05:15:56;;;;;;;23.60;12.73;;;19.20;99.90;;;;;;5053910;28;20276;-81
2023/07/05 05:18:25;;;;;;;24.50;13.07;;;19.20;99.90;;;;;;5036068;28;20729;-81
2023/07/05 05:20:52;;;;;;;23.27;13.13;;;19.30;99.90;;;;;;5036353;28;20215;-81
2023/07/05 05:23:19;;;;;;;23.93;12.50;;;19.40;99.90;;;;;;5054511;28;20218;-81
2023/07/05 05:25:47;;;;;;;21.47;11.90;;;19.50;99.90;;;;;;5054613;28;20219;-81
2023/07/05 05:28:14;;;;;;;27.40;12.13;;;19.60;99.90;;;;;;5052793;28;20659;-80
2023/07/05 05:30:43;;;;;;;24.10;12.03;;;19.70;99.90;;;;;;5052577;28;20223;-82
2023/07/05 05:33:13;;;;;;;23.30;12.47;;;19.80;99.90;;;;;;5053011;28;20214;-82
2023/07/05 05:35:47;;;;;;;25.13;13.17;;;19.90;99.90;;;;;;5052325;28;20222;-82
2023/07/05 05:38:16;;;;;;;25.47;13.40;;;19.90;99.90;;;;;;5052240;28;20544;-81
2023/07/05 05:40:43;;;;;;;26.67;13.80;;;20.00;99.90;;;;;;5053611;28;20211;-81
2023/07/05 05:43:10;;;;;;;23.63;13.17;;;20.10;99.90;;;;;;5052223;28;20320;-82
2023/07/05 05:45:37;;;;;;;24.93;11.77;;;20.20;99.90;;;;;;5052468;28;20310;-82
2023/07/05 05:48:05;;;;;;;21.80;12.43;;;20.20;99.90;;;;;;5052139;28;20280;-81
2023/07/05 05:50:32;;;;;;;26.80;12.73;;;20.30;99.90;;;;;;5052016;28;20222;-82
2023/07/05 05:52:59;;;;;;;22.23;11.83;;;20.40;99.90;;;;;;5052203;28;20242;-81
2023/07/05 05:55:26;;;;;;;24.17;12.83;;;20.50;99.90;;;;;;5053886;28;20215;-79
2023/07/05 05:57:53;;;;;;;24.80;12.73;;;20.60;99.90;;;;;;5052331;28;20659;-80
2023/07/05 06:00:21;;;;;;;28.00;13.20;;;20.70;99.90;;;;;;5053694;28;20639;-80
2023/07/05 06:02:47;;;;;;;24.97;12.27;;;20.70;99.90;;;;;;5052473;28;20195;-80
2023/07/05 06:05:15;;;;;;;25.23;13.30;;;20.70;99.90;;;;;;5052523;28;20621;-82
2023/07/05 06:07:42;;;;;;;29.13;13.27;;;20.80;99.90;;;;;;5052072;28;20199;-80
2023/07/05 06:10:10;;;;;;;24.70;12.50;;;20.80;99.90;;;;;;5035874;28;20249;-80
2023/07/05 06:12:41;;;;;;;26.03;12.80;;;21.00;99.90;;;;;;5052119;28;20205;-81
2023/07/05 06:15:11;;;;;;;27.57;12.77;;;21.10;99.90;;;;;;5052224;28;20187;-81
2023/07/05 06:17:38;;;;;;;21.37;11.80;;;21.20;99.90;;;;;;5035758;28;20600;-81
2023/07/05 06:20:06;;;;;;;22.10;12.40;;;21.20;99.90;;;;;;5035663;28;20714;-80
2023/07/05 06:22:38;;;;;;;22.50;12.10;;;21.40;99.90;;;;;;5036133;28;20195;-82
2023/07/05 06:25:05;;;;;;;26.20;12.43;;;21.50;99.90;;;;;;5051681;28;20202;-80
2023/07/05 06:27:33;;;;;;;21.30;12.13;;;21.50;99.90;;;;;;5051898;28;20226;-80
2023/07/05 06:30:00;;;;;;;22.07;12.43;;;21.60;99.90;;;;;;5034872;28;20692;-79
2023/07/05 06:32:27;;;;;;;23.07;12.60;;;21.70;99.90;;;;;;5052122;28;20195;-80
2023/07/05 06:34:54;;;;;;;26.23;12.83;;;21.70;99.90;;;;;;5051745;28;20199;-79
2023/07/05 06:37:21;;;;;;;24.50;12.70;;;21.80;99.90;;;;;;5052094;28;20202;-80
2023/07/05 06:39:48;;;;;;;24.70;12.80;;;21.80;99.90;;;;;;5051944;28;20682;-79
2023/07/05 06:42:15;;;;;;;23.03;12.73;;;22.00;99.90;;;;;;5051776;28;21091;-80
2023/07/05 06:44:42;;;;;;;25.00;12.73;;;22.00;99.90;;;;;;5051811;28;20278;-78
2023/07/05 06:47:09;;;;;;;24.67;13.07;;;22.00;99.90;;;;;;5051146;28;20706;-80
2023/07/05 06:49:37;;;;;;;23.17;12.43;;;22.20;99.90;;;;;;5052295;28;20702;-79
2023/07/05 06:52:09;;;;;;;24.03;13.10;;;22.30;99.90;;;;;;5052297;28;20218;-78
2023/07/05 06:54:36;;;;;;;25.93;14.30;;;22.40;99.90;;;;;;5050923;28;20228;-76
2023/07/05 06:57:03;;;;;;;22.97;13.17;;;22.60;99.90;;;;;;5051004;28;20225;-75
2023/07/05 06:59:31;;;;;;;26.37;12.93;;;22.60;99.90;;;;;;5052518;28;20285;-73
2023/07/05 07:01:58;;;;;;;25.70;13.30;;;22.70;99.90;;;;;;5050919;28;20269;-79
2023/07/05 07:04:26;;;;;;;20.50;12.90;;;22.90;99.90;;;;;;5051235;28;20215;-80
2023/07/05 07:06:53;;;;;;;21.83;12.97;;;22.90;99.90;;;;;;5050823;28;20219;-79
2023/07/05 07:09:20;;;;;;;21.57;12.63;;;23.00;99.90;;;;;;5051188;28;20238;-81
2023/07/05 07:11:47;;;;;;;20.35;12.85;;;23.10;99.90;;;;;;5052098;28;20683;-79
2023/07/05 07:14:14;;;;;;;23.65;13.65;;;23.30;99.90;;;;;;5034417;28;20199;-79
2023/07/05 07:16:41;;;;;;;24.43;13.20;;;23.40;99.90;;;;;;5050828;28;20239;-80
2023/07/05 07:19:08;;;;;;;21.13;12.52;;;23.50;99.90;;;;;;5050807;28;20191;-80
2023/07/05 07:21:35;;;;;;;20.75;12.32;;;23.70;99.90;;;;;;5050712;28;20241;-80
2023/07/05 07:24:02;;;;;;;22.95;12.95;;;23.60;99.90;;;;;;5050652;28;20199;-79
2023/07/05 07:26:29;;;;;;;21.88;13.30;;;23.80;99.90;;;;;;5050861;28;20337;-81
2023/07/05 07:28:56;;;;;;;24.20;13.35;;;24.00;99.90;;;;;;5052011;28;20191;-79
2023/07/05 07:31:26;;;;;;;19.73;12.37;;;24.00;99.90;;;;;;5050568;28;20214;-77
2023/07/05 07:33:53;;;;;;;22.75;12.77;;;24.00;99.90;;;;;;5052057;28;20217;-78
2023/07/05 07:36:25;;;;;;;20.27;12.90;;;24.10;99.90;;;;;;5052066;28;20273;-79
2023/07/05 07:38:53;;;;;;;22.33;13.73;;;24.20;99.90;;;;;;5035231;28;20253;-89
2023/07/05 07:41:30;;;;;;;23.45;13.15;;;24.30;99.90;;;;;;5034614;28;20238;-82
2023/07/05 07:44:06;;;;;;;23.10;12.93;;;24.40;99.90;;;;;;5038535;28;20206;-81
2023/07/05 07:46:34;;;;;;;22.85;13.38;;;24.50;99.90;;;;;;5054381;28;20230;-86
2023/07/05 07:49:04;;;;;;;23.10;12.82;;;24.80;99.90;;;;;;5054443;28;20234;-82
2023/07/05 07:51:34;;;;;;;20.55;12.43;;;24.70;99.90;;;;;;5054567;28;20520;-84
2023/07/05 07:54:08;;;;;;;24.30;13.57;;;24.80;99.90;;;;;;5054480;28;20248;-81
2023/07/05 07:56:36;;;;;;;21.38;12.80;;;25.00;99.90;;;;;;5055354;28;20309;-79
2023/07/05 07:59:06;;;;;;;22.40;12.70;;;25.10;99.90;;;;;;5037751;28;20233;-81
2023/07/05 08:01:37;;;;;;;21.35;12.23;;;25.20;99.90;;;;;;5054163;28;20214;-77
2023/07/05 08:04:07;;;;;;;21.25;11.70;;;25.20;99.80;;;;;;5054493;28;20616;-77
2023/07/05 08:06:36;;;;;;;20.30;11.85;;;25.30;99.70;;;;;;5037749;28;20230;-77
2023/07/05 08:09:08;;;;;;;20.95;11.43;;;25.40;98.00;;;;;;5053882;28;20293;-79
2023/07/05 08:11:36;;;;;;;23.20;12.13;;;25.50;97.80;;;;;;5053968;28;20218;-77
2023/07/05 08:14:03;;;;;;;20.98;11.80;;;25.50;97.90;;;;;;5055551;28;20281;-78
2023/07/05 08:16:30;;;;;;;19.13;11.18;;;25.70;96.80;;;;;;5053820;28;20249;-78
2023/07/05 08:18:57;;;;;;;18.20;10.65;;;25.90;94.70;;;;;;5053912;28;20195;-78
2023/07/05 08:21:24;;;;;;;19.67;10.93;;;25.90;95.30;;;;;;5053795;28;20223;-80
2023/07/05 08:23:51;;;;;;;16.98;10.45;;;25.80;94.10;;;;;;5053953;28;20227;-79
2023/07/05 08:26:18;;;;;;;18.58;10.25;;;25.90;91.90;;;;;;5054786;28;20256;-80
2023/07/05 08:28:46;;;;;;;17.10;10.35;;;26.20;90.30;;;;;;5055295;28;20216;-78
2023/07/05 08:31:13;;;;;;;18.90;10.88;;;26.90;89.90;;;;;;5053528;28;20222;-78
2023/07/05 08:33:41;;;;;;;18.67;11.23;;;27.60;89.70;;;;;;5053969;28;20191;-81
2023/07/05 08:36:27;;;;;;;21.95;11.93;;;28.10;88.00;;;;;;5054980;28;20207;-79
2023/07/05 08:38:55;;;;;;;16.50;11.00;;;28.60;86.10;;;;;;5037003;28;20229;-79
2023/07/05 08:41:55;;;;;;;17.70;11.30;;;29.10;82.90;;;;;;5053425;28;20222;-78
2023/07/05 08:44:24;;;;;;;18.30;11.38;;;29.60;81.20;;;;;;5055114;28;20532;-78
2023/07/05 08:47:01;;;;;;;18.17;12.07;;;30.10;78.20;;;;;;5053096;28;20338;-79
2023/07/05 08:49:46;;;;;;;19.85;11.80;;;29.80;74.40;;;;;;5054766;28;20268;-79
2023/07/05 08:52:34;;;;;;;16.90;11.50;;;29.90;74.00;;;;;;5053267;28;20713;-78
2023/07/05 08:55:05;;;;;;;21.25;12.20;;;30.50;74.00;;;;;;5052397;28;20203;-78
2023/07/05 08:57:46;;;;;;;17.67;11.55;;;30.90;73.20;;;;;;5053327;28;20209;-79
2023/07/05 09:00:16;;;;;;;20.67;11.65;;;31.20;72.50;;;;;;5036944;28;20203;-79
2023/07/05 09:02:43;;;;;;;21.75;12.93;;;31.00;70.90;;;;;;5054483;28;20236;-81
2023/07/05 09:05:28;;;;;;;20.48;11.95;;;31.00;70.60;;;;;;5053491;28;20214;-80
2023/07/05 09:08:15;;;;;;;20.55;12.18;;;31.00;69.40;;;;;;5053500;28;20214;-80
2023/07/05 09:11:12;;;;;;;23.05;12.20;;;31.40;68.80;;;;;;5053199;28;20222;-80
2023/07/05 09:13:41;;;;;;;18.63;12.10;;;31.10;67.60;;;;;;5053047;28;20195;-83
2023/07/05 09:16:14;;;;;;;20.30;12.32;;;30.90;70.40;;;;;;5054093;28;20283;-80
2023/07/05 09:18:47;;;;;;;19.27;12.15;;;31.20;68.40;;;;;;5036602;28;20285;-83
2023/07/05 09:21:47;;;;;;;18.55;12.13;;;31.50;68.30;;;;;;5052609;28;20215;-79
2023/07/05 09:24:31;;;;;;;17.83;12.25;;;31.80;66.10;;;;;;5054121;28;20587;-80
2023/07/05 09:27:01;;;;;;;22.73;12.90;;;32.10;66.60;;;;;;5052997;28;20310;-80
2023/07/05 09:29:43;;;;;;;20.13;13.07;;;32.20;66.00;;;;;;5052615;28;20230;-81
2023/07/05 09:32:18;;;;;;;21.20;13.13;;;31.80;65.40;;;;;;5052897;28;20693;-81
2023/07/05 09:34:50;;;;;;;23.67;12.93;;;31.50;66.00;;;;;;5036405;28;20205;-83
2023/07/05 09:37:32;;;;;;;22.13;12.73;;;31.40;65.10;;;;;;5052295;28;20231;-81
2023/07/05 09:40:16;;;;;;;20.25;12.55;;;31.10;66.30;;;;;;5053589;28;20190;-80
2023/07/05 09:42:55;;;;;;;20.88;12.30;;;31.40;65.40;;;;;;5053567;28;20706;-81
2023/07/05 09:45:22;;;;;;;20.55;13.10;;;31.90;64.80;;;;;;5052093;28;20257;-79
2023/07/05 09:48:00;;;;;;;20.58;12.73;;;31.90;63.90;;;;;;5052067;28;20253;-79
2023/07/05 09:50:28;;;;;;;19.33;12.68;;;31.80;63.00;;;;;;5035555;28;20691;-81
2023/07/05 09:53:02;;;;;;;21.52;12.63;;;31.40;64.00;;;;;;5053407;28;20694;-77
2023/07/05 09:55:29;;;;;;;22.63;13.25;;;31.40;64.60;;;;;;5051809;28;20305;-78
2023/07/05 09:57:58;;;;;;;19.73;13.18;;;31.30;65.00;;;;;;5051872;28;20199;-79
2023/07/05 10:00:36;;;;;;;20.42;12.90;;;31.30;65.70;;;;;;5051842;28;20202;-77
2023/07/05 10:03:10;;;;;;;19.70;12.88;;;31.50;65.00;;;;;;5052091;28;20198;-75
2023/07/05 10:05:38;;;;;;;19.92;12.57;;;31.80;64.80;;;;;;5052207;28;20217;-77
2023/07/05 10:08:15;;;;;;;20.33;12.55;;;32.00;62.70;;;;;;5053525;28;20287;-77
2023/07/05 10:10:42;;;;;;;20.65;13.07;;;31.70;63.30;;;;;;5051637;28;20230;-78
2023/07/05 10:13:21;;;;;;;22.20;13.77;;;31.50;63.60;;;;;;5051748;28;20290;-76
2023/07/05 10:15:51;;;;;;;19.88;13.18;;;31.70;62.80;;;;;;5053223;28;20238;-78
2023/07/05 10:18:33;;;;;;;20.55;12.95;;;32.00;62.80;;;;;;5051507;28;20244;-79
2023/07/05 10:21:05;;;;;;;18.05;12.68;;;32.50;61.30;;;;;;5051474;28;20246;-75
2023/07/05 10:23:34;;;;;;;17.67;12.40;;;33.10;61.00;;;;;;5051459;28;20191;-78
2023/07/05 10:26:04;;;;;;;20.15;12.80;;;33.50;61.00;;;;;;5034907;28;20228;-79
2023/07/05 10:28:35;;;;;;;19.25;13.30;;;33.10;59.70;;;;;;5034843;28;20187;-79
2023/07/05 10:31:07;;;;;;;20.80;13.27;;;32.30;59.60;;;;;;5051162;28;20223;-77
2023/07/05 10:33:37;;;;;;;21.33;13.07;;;32.50;60.40;;;;;;5051458;28;20642;-77
2023/07/05 10:36:15;;;;;;;18.92;13.48;;;32.90;60.20;;;;;;5051496;28;20219;-75
2023/07/05 10:38:44;;;;;;;17.83;12.77;;;33.10;59.80;;;;;;5051265;28;20194;-79
2023/07/05 10:41:20;;;;;;;19.00;13.07;;;33.00;60.50;;;;;;5052412;28;20218;-76
2023/07/05 10:44:00;;;;;;;19.33;12.82;;;33.30;59.70;;;;;;5051175;28;20199;-79
2023/07/05 10:46:28;;;;;;;16.70;12.18;;;33.80;58.10;;;;;;5050810;28;20250;-77
2023/07/05 10:48:57;;;;;;;17.30;12.15;;;34.30;57.10;;;;;;5034572;28;20199;-75
2023/07/05 10:51:30;;;;;;;17.63;12.65;;;34.00;57.60;;;;;;5034754;28;20227;-77
2023/07/05 10:54:06;;;;;;;19.30;11.85;;;34.30;56.20;;;;;;5051059;28;20198;-75
2023/07/05 10:56:36;;;;;;;17.77;11.95;;;34.60;55.70;;;;;;5052184;28;20210;-77
2023/07/05 10:59:36;;;;;;;16.65;12.05;;;35.00;55.50;;;;;;5052507;28;20197;-76
2023/07/05 11:02:36;;;;;;;17.40;12.40;;;35.00;54.50;;;;;;5050874;28;20670;-74
2023/07/05 11:05:16;;;;;;;19.10;12.15;;;35.10;54.10;;;;;;5050874;28;20274;-76
2023/07/05 11:07:45;;;;;;;18.58;11.82;;;35.20;53.80;;;;;;5050927;28;20195;-75
2023/07/05 11:10:16;;;;;;;15.95;11.50;;;35.40;53.80;;;;;;5050907;28;20260;-77
2023/07/05 11:12:46;;;;;;;16.73;11.23;;;35.70;53.10;;;;;;5050833;28;20249;-78
2023/07/05 11:15:15;;;;;;;15.50;10.10;;;35.60;51.80;;;;;;5050715;28;20203;-76
2023/07/05 11:17:44;;;;;;;17.17;11.27;;;35.50;52.80;;;;;;5053515;28;20643;-76
2023/07/05 11:20:39;;;;;;;16.25;11.20;;;34.70;53.50;;;;;;5038677;28;20246;-74
2023/07/05 11:23:11;;;;;;;16.85;11.35;;;34.10;54.30;;;;;;5056256;28;20221;-74
2023/07/05 11:25:59;;;;;;;15.02;10.52;;;33.80;56.10;;;;;;5054774;28;20674;-75
2023/07/05 11:28:37;;;;;;;17.48;10.77;;;33.70;54.70;;;;;;5054758;28;20194;-77
2023/07/05 11:31:28;;;;;;;17.25;11.48;;;33.50;55.10;;;;;;5054535;28;20704;-74
2023/07/05 11:34:25;;;;;;;17.08;11.45;;;33.60;54.80;;;;;;5033535;28;20191;-75
2023/07/05 11:37:04;;;;;;;17.73;11.38;;;34.20;53.90;;;;;;5017348;28;20211;-78
2023/07/05 11:39:31;;;;;;;15.13;10.82;;;34.90;52.30;;;;;;5016914;28;20207;-76
2023/07/05 11:42:19;;;;;;;16.02;10.90;;;35.00;52.60;;;;;;5016850;28;20313;-78
2023/07/05 11:44:55;;;;;;;16.33;10.43;;;35.00;52.30;;;;;;5017007;28;20203;-74
2023/07/05 11:47:22;;;;;;;16.77;10.68;;;35.00;52.70;;;;;;5033199;28;20284;-74
2023/07/05 11:49:55;;;;;;;14.40;10.35;;;35.30;53.00;;;;;;5000698;28;20203;-78
2023/07/05 11:52:37;;;;;;;15.90;10.90;;;35.10;52.20;;;;;;5033369;28;20257;-77
2023/07/05 11:55:20;;;;;;;18.15;11.27;;;35.10;52.20;;;;;;5000490;28;20195;-77
2023/07/05 11:57:59;;;;;;;14.52;10.40;;;35.50;52.60;;;;;;5016781;28;20191;-78
2023/07/05 12:00:26;;;;;;;15.18;10.05;;;35.60;51.70;;;;;;5016828;28;20219;-79
2023/07/05 12:03:04;;;;;;;18.48;10.07;;;35.20;52.60;;;;;;5033116;28;20264;-76
2023/07/05 12:05:33;;;;;;;21.52;11.35;;;35.60;52.00;;;;;;5016758;28;20250;-80
2023/07/05 12:08:26;;;;;;;15.80;10.65;;;35.80;51.80;;;;;;5016635;28;20286;-75
2023/07/05 12:10:58;;;;;;;15.18;10.52;;;36.20;51.10;;;;;;5043016;28;20345;-75
2023/07/05 12:13:30;;;;;;;15.38;10.73;;;36.20;51.20;;;;;;5055327;28;20530;-78
2023/07/05 12:15:58;;;;;;;14.95;11.10;;;36.40;51.40;;;;;;5037431;28;20246;-77
2023/07/05 12:18:27;;;;;;;16.92;10.93;;;36.70;51.10;;;;;;5055400;28;20270;-77
2023/07/05 12:20:54;;;;;;;16.77;10.43;;;37.30;50.50;;;;;;5055013;28;20217;-77
2023/07/05 12:23:25;;;;;;;15.18;10.93;;;37.10;50.10;;;;;;5054038;28;20203;-80
2023/07/05 12:25:57;;;;;;;15.82;10.85;;;36.80;49.90;;;;;;5053489;28;20678;-79
2023/07/05 12:28:27;;;;;;;15.65;10.57;;;37.00;49.40;;;;;;5052562;28;20643;-79
2023/07/05 12:31:12;;;;;;;15.48;11.27;;;36.60;50.00;;;;;;5037110;28;20310;-76
2023/07/05 12:33:40;;;;;;;15.65;11.43;;;36.10;51.30;;;;;;5053599;28;20195;-77
2023/07/05 12:36:17;;;;;;;16.42;11.63;;;35.90;51.80;;;;;;5053396;28;20214;-76
2023/07/05 12:38:47;;;;;;;18.10;11.95;;;36.20;51.80;;;;;;5053687;28;20210;-79
2023/07/05 12:41:22;;;;;;;17.58;12.02;;;36.20;51.70;;;;;;5053487;28;20292;-78
2023/07/05 12:44:14;;;;;;;17.70;11.65;;;35.90;51.70;;;;;;5053326;28;20649;-80
2023/07/05 12:46:42;;;;;;;18.95;11.73;;;36.00;51.20;;;;;;5054292;28;20225;-81
2023/07/05 12:49:24;;;;;;;15.88;11.00;;;36.10;51.40;;;;;;5054615;28;20186;-79